Caitlin Ann — WDF8998 — position and weather

sailwx.info

Track history (hours):
 
Tides and Currents Weather Stations Pressure Air Temp Water Temp Dewpoint Dewpoint Depression Visibility Wind Speed Wind Dir Waves Ship Positions

Caitlin Ann

Owner: Donjon Marine Co., Inc., Hillside, NJ. More information available from US FCC via Universal Licensing System and Coast Guard Vessel Documentation Center.

Last reported at 2017-Dec-16 01:00 UTC. Time now 2017-Dec-16 01:30 UTC.
Position N 40°42' W 074°09'.

Length 30 m; draft 3.2 m.

Type: Towing. MMSI: 367500750.

Date/timePositionNaut miles runAvg speedWind from/ knotsBaromVisibWave heightAir tempDewpointWater temp
2017-Dec-16 01:00N 40°42' W 074°09'0 0.0
2017-Dec-16 00:28N 40°42' W 074°09'0 0.0
2017-Dec-15 23:58N 40°42' W 074°09'0 0.0
2017-Dec-15 23:30N 40°42' W 074°09'0 0.0
2017-Dec-15 22:59N 40°42' W 074°09'0 0.0
2017-Dec-15 22:30N 40°42' W 074°09'0 0.0
2017-Dec-15 22:00N 40°42' W 074°09'0 0.0
2017-Dec-15 21:29N 40°42' W 074°09'0 0.3
2017-Dec-15 21:00N 40°42' W 074°09'0 0.1
2017-Dec-15 20:29N 40°42' W 074°09'1 1.3
2017-Dec-15 19:59N 40°41' W 074°08'1 0.4
2017-Dec-15 17:59N 40°42' W 074°09'0 0.0
2017-Dec-15 17:30N 40°42' W 074°09'0 0.0
2017-Dec-15 16:57N 40°42' W 074°09'0 0.0
2017-Dec-15 16:30N 40°42' W 074°09'2 3.7
2017-Dec-15 16:00N 40°40' W 074°08'2 3.7
2017-Dec-15 15:30N 40°42' W 074°09'0 0.0
2017-Dec-15 15:00N 40°42' W 074°09'0 0.0
2017-Dec-15 14:30N 40°42' W 074°09'0 0.0
2017-Dec-15 14:00N 40°42' W 074°09'0 0.0
2017-Dec-15 12:06N 40°42' W 074°09'0 0.0
2017-Dec-15 12:00N 40°42' W 074°09'0 0.0
2017-Dec-15 11:30N 40°42' W 074°09'0 0.0
2017-Dec-15 10:59N 40°42' W 074°09'0 0.0
2017-Dec-15 10:30N 40°42' W 074°09'0 0.0
2017-Dec-15 10:00N 40°42' W 074°09'0 0.0
2017-Dec-15 09:30N 40°42' W 074°09'0 0.0
2017-Dec-15 09:00N 40°42' W 074°09'0 0.0
2017-Dec-15 08:30N 40°42' W 074°09'0 0.0
2017-Dec-15 08:00N 40°42' W 074°09'2 3.4
2017-Dec-15 07:31N 40°41' W 074°08'2 3.8
2017-Dec-15 06:59N 40°39' W 074°06'3 5.5
2017-Dec-15 06:31N 40°41' W 074°04'0 0.6
2017-Dec-15 06:01N 40°41' W 074°04'2 4.0
2017-Dec-15 05:31N 40°41' W 074°02'3 6.2
2017-Dec-15 05:01N 40°43' W 073°59'4 7.2
2017-Dec-15 04:30N 40°46' W 073°57'3 6.7
2017-Dec-15 04:00N 40°48' W 073°53'4 2.0
2017-Dec-15 02:09N 40°48' W 073°48'1 0.6
2017-Dec-15 00:59N 40°48' W 073°47'17 2.6
2017-Dec-14 18:30N 40°41' W 074°08'1 1.8
2017-Dec-14 18:00N 40°42' W 074°09'0 0.0
2017-Dec-14 17:30N 40°42' W 074°09'3 6.4
2017-Dec-14 17:00N 40°39' W 074°10'4 7.8
2017-Dec-14 16:25N 40°35' W 074°13'0 0.0
2017-Dec-14 15:59N 40°35' W 074°13'1 1.4
2017-Dec-14 14:59N 40°36' W 074°12'3 6.2
2017-Dec-14 14:30N 40°39' W 074°10'3 6.2
2017-Dec-14 13:59N 40°39' W 074°06'3 6.1
2017-Dec-14 13:30N 40°41' W 074°03'4 7.2
2017-Dec-14 13:00N 40°44' W 074°01'3 5.1
2017-Dec-14 12:30N 40°46' W 073°60'0 0.2
2017-Dec-14 12:00N 40°46' W 073°60'3 6.7
2017-Dec-14 11:30N 40°43' W 074°02'4 8.6
2017-Dec-14 11:01N 40°40' W 074°04'4 7.4
2017-Dec-14 10:30N 40°38' W 074°09'2 4.1
2017-Dec-14 09:59N 40°38' W 074°12'3 6.3
2017-Dec-14 09:30N 40°35' W 074°12'1 2.7
2017-Dec-14 09:00N 40°37' W 074°12'3 5.3
2017-Dec-14 08:29N 40°39' W 074°10'3 5.7
2017-Dec-14 08:00N 40°41' W 074°08'1 2.6
2017-Dec-14 07:31N 40°42' W 074°09'0 0.0
2017-Dec-14 07:00N 40°42' W 074°09'0 0.0
2017-Dec-14 06:30N 40°42' W 074°09'0 0.0
2017-Dec-14 05:59N 40°42' W 074°09'0 0.0
2017-Dec-14 05:29N 40°42' W 074°09'0 0.0
2017-Dec-14 05:00N 40°42' W 074°09'0 0.0
2017-Dec-14 04:30N 40°42' W 074°09'0 0.0
2017-Dec-14 04:00N 40°42' W 074°09'0 0.0
2017-Dec-14 03:30N 40°42' W 074°09'0 0.0
2017-Dec-14 03:00N 40°42' W 074°09'0 0.0
2017-Dec-14 02:31N 40°42' W 074°09'0 0.0
2017-Dec-14 02:00N 40°42' W 074°09'0 0.0
2017-Dec-14 01:30N 40°42' W 074°09'0 0.0
2017-Dec-14 01:01N 40°42' W 074°09'0 0.0
2017-Dec-14 00:30N 40°42' W 074°09'0 0.0
2017-Dec-14 00:01N 40°42' W 074°09'0 0.0
2017-Dec-13 23:31N 40°42' W 074°09'0 0.0
2017-Dec-13 23:00N 40°42' W 074°09'0 0.0
2017-Dec-13 22:30N 40°42' W 074°09'0 0.0
2017-Dec-13 22:00N 40°42' W 074°09'0 0.0
2017-Dec-13 21:29N 40°42' W 074°09'0 0.0
2017-Dec-13 21:00N 40°42' W 074°09'0 0.0
2017-Dec-13 20:31N 40°42' W 074°09'0 0.0
2017-Dec-13 20:01N 40°42' W 074°09'0 0.1
2017-Dec-13 19:30N 40°42' W 074°09'1 2.7
2017-Dec-13 19:00N 40°41' W 074°08'1 2.9
2017-Dec-13 18:30N 40°42' W 074°09'0 0.0
2017-Dec-13 18:00N 40°42' W 074°09'0 0.0
2017-Dec-13 17:30N 40°42' W 074°09'0 0.0
2017-Dec-13 17:00N 40°42' W 074°09'0 0.0
2017-Dec-13 16:30N 40°42' W 074°09'0 0.0
2017-Dec-13 16:00N 40°42' W 074°09'0 0.0
2017-Dec-13 15:29N 40°42' W 074°09'0 0.0
2017-Dec-13 15:00N 40°42' W 074°09'0 0.0
2017-Dec-13 14:30N 40°42' W 074°09'0 0.0
2017-Dec-13 14:00N 40°42' W 074°09'0 0.0
2017-Dec-13 13:30N 40°42' W 074°09'0 0.0
2017-Dec-13 12:54N 40°42' W 074°09'0 0.1
2017-Dec-13 12:30N 40°42' W 074°09'2 4.6
2017-Dec-13 12:00N 40°40' W 074°08'2 3.9
2017-Dec-13 11:30N 40°39' W 074°06'2 5.0
2017-Dec-13 11:00N 40°41' W 074°04'1 1.8
2017-Dec-13 10:30N 40°41' W 074°05'0 0.0
2017-Dec-13 10:00N 40°41' W 074°05'0 0.1
2017-Dec-13 09:30N 40°41' W 074°05'0 0.4
2017-Dec-13 09:00N 40°41' W 074°04'0 0.4
2017-Dec-13 08:30N 40°41' W 074°05'0 0.1
2017-Dec-13 08:00N 40°41' W 074°05'0 0.0
2017-Dec-13 07:30N 40°41' W 074°05'0 0.0
2017-Dec-13 07:00N 40°41' W 074°05'0 0.0
2017-Dec-13 06:30N 40°41' W 074°05'0 0.0
2017-Dec-13 06:00N 40°41' W 074°05'0 0.0
2017-Dec-13 05:30N 40°41' W 074°05'0 0.0
2017-Dec-13 05:00N 40°41' W 074°05'0 0.2
2017-Dec-13 04:30N 40°41' W 074°05'0 0.0
2017-Dec-13 04:00N 40°41' W 074°05'0 0.7
2017-Dec-13 03:30N 40°41' W 074°04'2 4.5
2017-Dec-13 03:00N 40°42' W 074°01'3 6.5
2017-Dec-13 02:30N 40°44' W 073°58'4 8.6
2017-Dec-13 02:00N 40°47' W 073°55'2 1.5
2017-Dec-13 00:24N 40°49' W 073°52'2 4.6
2017-Dec-12 23:55N 40°48' W 073°55'2 4.4
2017-Dec-12 23:30N 40°46' W 073°57'2 4.7
2017-Dec-12 23:00N 40°44' W 073°58'3 6.4
2017-Dec-12 22:30N 40°42' W 074°00'2 4.7
2017-Dec-12 22:00N 40°41' W 074°03'1 2.4
2017-Dec-12 21:30N 40°41' W 074°05'0 0.0
2017-Dec-12 21:00N 40°41' W 074°05'0 0.0
2017-Dec-12 20:30N 40°41' W 074°05'0 0.1
2017-Dec-12 20:00N 40°41' W 074°04'0 0.3
2017-Dec-12 19:30N 40°41' W 074°05'0 0.0
2017-Dec-12 19:00N 40°41' W 074°05'0 0.0
2017-Dec-12 18:30N 40°41' W 074°05'0 0.3
2017-Dec-12 18:00N 40°41' W 074°04'0 0.2
2017-Dec-12 17:30N 40°41' W 074°05'0 0.9
2017-Dec-12 17:00N 40°41' W 074°04'3 5.7
2017-Dec-12 16:30N 40°42' W 074°01'3 6.2
2017-Dec-12 16:00N 40°44' W 073°58'4 7.6
2017-Dec-12 15:29N 40°47' W 073°55'3 6.9
2017-Dec-12 15:00N 40°48' W 073°50'3 0.9
2017-Dec-12 11:28N 40°51' W 073°49'3 6.1
2017-Dec-12 10:57N 40°48' W 073°47'1 1.8
2017-Dec-12 10:29N 40°48' W 073°48'0 0.0
2017-Dec-12 10:00N 40°48' W 073°48'0 0.1
2017-Dec-12 09:29N 40°48' W 073°48'0 0.0
2017-Dec-12 08:59N 40°48' W 073°48'0 0.1
2017-Dec-12 08:29N 40°48' W 073°48'0 0.0
2017-Dec-12 07:56N 40°48' W 073°48'0 0.0
2017-Dec-12 06:38N 40°48' W 073°48'0 0.0
2017-Dec-12 06:28N 40°48' W 073°48'0 0.0
2017-Dec-12 05:51N 40°48' W 073°48'0 0.0
2017-Dec-12 05:30N 40°48' W 073°48'2 2.8
2017-Dec-12 04:57N 40°48' W 073°50'4 9.7
2017-Dec-12 04:31N 40°47' W 073°56'3 5.3
2017-Dec-12 04:00N 40°44' W 073°57'1 2.7
2017-Dec-12 03:30N 40°43' W 073°58'0 0.8
2017-Dec-12 03:00N 40°43' W 073°58'1 1.1
2017-Dec-12 02:30N 40°43' W 073°59'2 4.2
2017-Dec-12 02:00N 40°41' W 074°01'2 4.6
2017-Dec-12 01:30N 40°40' W 074°04'1 1.9
2017-Dec-12 01:00N 40°41' W 074°05'0 0.2
2017-Dec-12 00:30N 40°41' W 074°04'0 0.0
2017-Dec-12 00:00N 40°41' W 074°04'0 0.0
2017-Dec-11 23:30N 40°41' W 074°04'0 0.0
2017-Dec-11 23:00N 40°41' W 074°04'0 0.0
2017-Dec-11 22:30N 40°41' W 074°04'0 0.0
2017-Dec-11 22:00N 40°41' W 074°04'1 1.9
2017-Dec-11 21:30N 40°40' W 074°04'4 8.4
2017-Dec-11 20:59N 40°39' W 074°09'3 6.1
2017-Dec-11 20:29N 40°42' W 074°09'0 0.0
2017-Dec-11 20:00N 40°42' W 074°09'0 0.4
2017-Dec-11 19:30N 40°42' W 074°09'2 3.9
2017-Dec-11 19:00N 40°40' W 074°08'3 5.6
2017-Dec-11 18:30N 40°38' W 074°11'1 1.9
2017-Dec-11 18:00N 40°38' W 074°12'3 5.2
2017-Dec-11 17:21N 40°34' W 074°12'1 2.7
2017-Dec-11 16:58N 40°35' W 074°12'1 0.3
2017-Dec-11 13:41N 40°34' W 074°12'0 0.0
2017-Dec-11 13:29N 40°34' W 074°12'1 1.2
2017-Dec-11 13:00N 40°35' W 074°13'4 7.1
2017-Dec-11 12:30N 40°38' W 074°12'3 6.4
2017-Dec-11 11:59N 40°39' W 074°07'3 6.1
2017-Dec-11 11:30N 40°40' W 074°04'4 7.5
2017-Dec-11 11:00N 40°43' W 074°02'4 7.0
2017-Dec-11 10:30N 40°46' W 074°00'0 0.6
2017-Dec-11 10:00N 40°46' W 073°60'0 0.1
2017-Dec-11 09:29N 40°46' W 073°60'3 6.5
2017-Dec-11 09:00N 40°44' W 074°02'4 7.6
2017-Dec-11 08:30N 40°40' W 074°04'4 7.4
2017-Dec-11 08:00N 40°39' W 074°08'3 6.5
2017-Dec-11 07:30N 40°37' W 074°12'3 5.6
2017-Dec-11 07:00N 40°34' W 074°12'0 0.0
2017-Dec-11 06:30N 40°34' W 074°12'0 0.0
2017-Dec-11 05:59N 40°34' W 074°12'0 0.0
2017-Dec-11 05:30N 40°34' W 074°12'0 0.0
2017-Dec-11 04:59N 40°34' W 074°12'0 0.1
2017-Dec-11 03:24N 40°34' W 074°12'0 0.0
2017-Dec-11 00:54N 40°34' W 074°12'0 0.0
2017-Dec-11 00:25N 40°34' W 074°12'0 0.0
2017-Dec-10 23:54N 40°34' W 074°12'0 0.0
2017-Dec-10 23:25N 40°34' W 074°12'0 0.0
2017-Dec-10 22:59N 40°34' W 074°12'0 0.0
2017-Dec-10 22:21N 40°34' W 074°12'0 0.0
2017-Dec-10 21:59N 40°34' W 074°12'0 0.0
2017-Dec-10 21:28N 40°34' W 074°12'0 0.0
2017-Dec-10 20:59N 40°34' W 074°12'0 0.0
2017-Dec-10 20:30N 40°34' W 074°12'1 1.2
2017-Dec-10 20:00N 40°35' W 074°12'1 1.0
2017-Dec-10 19:23N 40°34' W 074°12'1 2.1
2017-Dec-10 18:56N 40°35' W 074°12'1 1.2
2017-Dec-10 18:16N 40°35' W 074°13'2 4.4
2017-Dec-10 17:55N 40°36' W 074°12'0 0.1
2017-Dec-10 17:29N 40°36' W 074°12'3 6.4
2017-Dec-10 17:00N 40°39' W 074°10'3 5.1
2017-Dec-10 16:30N 40°41' W 074°08'2 3.2
2017-Dec-10 16:00N 40°42' W 074°09'0 0.0
2017-Dec-10 15:30N 40°42' W 074°09'0 0.0
2017-Dec-10 15:00N 40°42' W 074°09'0 0.0
2017-Dec-10 14:30N 40°42' W 074°09'0 0.0
2017-Dec-10 14:00N 40°42' W 074°09'0 0.0
2017-Dec-10 13:30N 40°42' W 074°09'0 0.1
2017-Dec-10 13:00N 40°42' W 074°09'0 0.0
2017-Dec-10 12:30N 40°42' W 074°09'0 0.0
2017-Dec-10 12:00N 40°42' W 074°09'0 0.0
2017-Dec-10 11:30N 40°42' W 074°09'0 0.0
2017-Dec-10 11:00N 40°42' W 074°09'0 0.0
2017-Dec-10 10:30N 40°42' W 074°09'0 0.0
2017-Dec-10 10:00N 40°42' W 074°09'0 0.0
2017-Dec-10 09:30N 40°42' W 074°09'0 0.0
2017-Dec-10 09:00N 40°42' W 074°09'0 0.0
2017-Dec-10 08:30N 40°42' W 074°09'0 0.0
2017-Dec-10 08:00N 40°42' W 074°09'0 0.0
2017-Dec-10 07:30N 40°42' W 074°09'0 0.0
2017-Dec-10 07:00N 40°42' W 074°09'0 0.0
2017-Dec-10 06:30N 40°42' W 074°09'0 0.0
2017-Dec-10 06:00N 40°42' W 074°09'0 0.0
2017-Dec-10 05:30N 40°42' W 074°09'0 0.0
2017-Dec-10 05:00N 40°42' W 074°09'0 0.0
2017-Dec-10 04:30N 40°42' W 074°09'0 0.0
2017-Dec-10 04:00N 40°42' W 074°09'0 0.0
2017-Dec-10 03:30N 40°42' W 074°09'0 0.0
2017-Dec-10 03:00N 40°42' W 074°09'0 0.0
2017-Dec-10 02:30N 40°42' W 074°09'0 0.0
2017-Dec-10 02:00N 40°42' W 074°09'0 0.0
2017-Dec-10 01:30N 40°42' W 074°09'0 0.0
2017-Dec-10 01:00N 40°42' W 074°09'0 0.0
2017-Dec-10 00:30N 40°42' W 074°09'0 0.0
2017-Dec-10 00:00N 40°42' W 074°09'0 0.0
2017-Dec-09 23:30N 40°42' W 074°09'0 0.0
2017-Dec-09 23:00N 40°42' W 074°09'0 0.0
2017-Dec-09 22:30N 40°42' W 074°09'0 0.0
2017-Dec-09 22:00N 40°42' W 074°09'0 0.0
2017-Dec-09 21:30N 40°42' W 074°09'0 0.0
2017-Dec-09 21:00N 40°42' W 074°09'0 0.0
2017-Dec-09 20:30N 40°42' W 074°09'0 0.0
2017-Dec-09 20:00N 40°42' W 074°09'0 0.0
2017-Dec-09 19:30N 40°42' W 074°09'0 0.0
2017-Dec-09 19:00N 40°42' W 074°09'1 1.8
2017-Dec-09 18:30N 40°41' W 074°08'3 5.4
2017-Dec-09 17:59N 40°39' W 074°07'1 1.8
2017-Dec-09 17:30N 40°39' W 074°05'0 0.0
2017-Dec-09 17:00N 40°39' W 074°05'3 5.4
2017-Dec-09 16:30N 40°39' W 074°09'3 6.4
2017-Dec-09 16:00N 40°42' W 074°09'0 0.1
2017-Dec-09 15:30N 40°42' W 074°09'0 0.0
2017-Dec-09 15:00N 40°42' W 074°09'0 0.0
2017-Dec-09 14:30N 40°42' W 074°09'0 0.0
2017-Dec-09 14:00N 40°42' W 074°09'0 0.0
2017-Dec-09 13:30N 40°42' W 074°09'0 0.1
2017-Dec-09 12:59N 40°42' W 074°09'0 0.0
2017-Dec-09 12:30N 40°42' W 074°09'0 0.0
2017-Dec-09 12:00N 40°42' W 074°09'0 0.0
2017-Dec-09 11:30N 40°42' W 074°09'0 0.0
2017-Dec-09 11:00N 40°42' W 074°09'0 0.0
2017-Dec-09 10:30N 40°42' W 074°09'0 0.0
2017-Dec-09 10:00N 40°42' W 074°09'0 0.0
2017-Dec-09 09:30N 40°42' W 074°09'0 0.0
2017-Dec-09 08:58N 40°42' W 074°09'0 0.0
2017-Dec-09 08:29N 40°42' W 074°09'0 0.0
2017-Dec-09 08:00N 40°42' W 074°09'0 0.0
2017-Dec-09 07:30N 40°42' W 074°09'0 0.0
2017-Dec-09 07:00N 40°42' W 074°09'0 0.0
2017-Dec-09 06:30N 40°42' W 074°09'0 0.0
2017-Dec-09 06:00N 40°42' W 074°09'0 0.0
2017-Dec-09 05:30N 40°42' W 074°09'0 0.0
2017-Dec-09 05:00N 40°42' W 074°09'0 0.0
2017-Dec-09 04:30N 40°42' W 074°09'0 0.0
2017-Dec-09 04:00N 40°42' W 074°09'0 0.0
2017-Dec-09 03:30N 40°42' W 074°09'1 2.2
2017-Dec-09 02:58N 40°41' W 074°09'2 5.0
2017-Dec-09 02:29N 40°39' W 074°07'3 6.4
2017-Dec-09 02:00N 40°41' W 074°05'2 3.0
2017-Dec-09 01:30N 40°41' W 074°03'3 6.7
2017-Dec-09 01:00N 40°43' W 073°59'2 4.4
2017-Dec-09 00:28N 40°44' W 073°57'0 0.1
2017-Dec-09 00:00N 40°44' W 073°57'1 2.4
2017-Dec-08 23:30N 40°44' W 073°58'2 4.4
2017-Dec-08 23:00N 40°42' W 074°00'3 5.5
2017-Dec-08 22:30N 40°40' W 074°03'2 3.4
2017-Dec-08 22:00N 40°41' W 074°05'0 0.1
2017-Dec-08 21:30N 40°41' W 074°05'0 0.0
2017-Dec-08 21:00N 40°41' W 074°05'0 0.0
2017-Dec-08 20:30N 40°41' W 074°05'0 0.7
2017-Dec-08 20:00N 40°41' W 074°04'3 6.8
2017-Dec-08 19:30N 40°42' W 074°00'3 6.7
2017-Dec-08 19:00N 40°44' W 073°56'1 2.2
2017-Dec-08 18:30N 40°43' W 073°56'1 2.2
2017-Dec-08 18:00N 40°44' W 073°56'3 5.5
2017-Dec-08 17:30N 40°42' W 073°59'4 7.7
2017-Dec-08 17:00N 40°41' W 074°04'2 3.5
2017-Dec-08 16:30N 40°39' W 074°05'5 9.3
2017-Dec-08 16:00N 40°39' W 074°11'4 8.2
2017-Dec-08 15:28N 40°34' W 074°12'1 1.6
2017-Dec-08 15:00N 40°35' W 074°13'3 6.2
2017-Dec-08 14:30N 40°38' W 074°12'3 6.3
2017-Dec-08 14:00N 40°39' W 074°08'4 7.3
2017-Dec-08 13:30N 40°40' W 074°03'4 7.6
2017-Dec-08 13:00N 40°43' W 074°02'3 6.6
2017-Dec-08 12:30N 40°46' W 073°60'0 0.1
2017-Dec-08 12:00N 40°47' W 073°60'0 0.1
2017-Dec-08 11:30N 40°46' W 073°60'1 2.6
2017-Dec-08 11:00N 40°45' W 074°01'2 3.5
2017-Dec-08 10:30N 40°44' W 074°01'2 4.9
2017-Dec-08 10:00N 40°41' W 074°02'3 5.8
2017-Dec-08 09:31N 40°39' W 074°05'4 7.6
2017-Dec-08 09:00N 40°39' W 074°10'3 5.8
2017-Dec-08 08:30N 40°37' W 074°12'2 4.4
2017-Dec-08 07:59N 40°34' W 074°12'0 0.3
2017-Dec-08 07:30N 40°34' W 074°12'3 5.9
2017-Dec-08 07:00N 40°37' W 074°12'3 5.6
2017-Dec-08 06:30N 40°39' W 074°09'3 5.4
2017-Dec-08 06:00N 40°39' W 074°05'3 5.9
2017-Dec-08 05:30N 40°41' W 074°02'3 6.2
2017-Dec-08 05:00N 40°44' W 074°01'3 5.5
2017-Dec-08 04:29N 40°47' W 073°60'0 0.3
2017-Dec-08 04:00N 40°46' W 073°60'2 4.5
2017-Dec-08 03:30N 40°45' W 074°01'4 8.1
2017-Dec-08 03:00N 40°41' W 074°03'3 6.9
2017-Dec-08 02:30N 40°39' W 074°07'3 6.7
2017-Dec-08 02:00N 40°39' W 074°11'3 4.8
2017-Dec-08 01:17N 40°35' W 074°12'1 1.0
2017-Dec-08 00:13N 40°34' W 074°12'2 5.9
2017-Dec-07 23:57N 40°36' W 074°12'4 6.9
2017-Dec-07 23:26N 40°39' W 074°09'3 6.5
2017-Dec-07 23:00N 40°41' W 074°08'0 0.0
2017-Dec-07 22:29N 40°41' W 074°08'0 0.0
2017-Dec-07 22:00N 40°41' W 074°08'0 0.0
2017-Dec-07 21:30N 40°41' W 074°08'0 0.0
2017-Dec-07 20:59N 40°41' W 074°08'0 0.0
2017-Dec-07 20:29N 40°41' W 074°08'0 0.0
2017-Dec-07 20:00N 40°41' W 074°08'0 0.2
2017-Dec-07 19:31N 40°42' W 074°08'1 1.2
2017-Dec-07 19:00N 40°41' W 074°09'0 0.3
2017-Dec-07 18:30N 40°41' W 074°09'0 0.0
2017-Dec-07 17:59N 40°41' W 074°09'0 0.1
2017-Dec-07 17:30N 40°41' W 074°09'0 0.0
2017-Dec-07 17:00N 40°41' W 074°09'0 0.2
2017-Dec-07 16:30N 40°41' W 074°09'1 1.4
2017-Dec-07 16:00N 40°41' W 074°08'1 1.9
2017-Dec-07 15:30N 40°42' W 074°09'1 2.1
2017-Dec-07 15:00N 40°41' W 074°08'3 5.7
2017-Dec-07 14:30N 40°39' W 074°10'2 4.3
2017-Dec-07 14:00N 40°38' W 074°12'0 0.1
2017-Dec-07 13:30N 40°38' W 074°12'0 0.1
2017-Dec-07 13:00N 40°38' W 074°12'0 0.0
2017-Dec-07 12:30N 40°38' W 074°12'0 0.1
2017-Dec-07 12:00N 40°38' W 074°12'0 0.0
2017-Dec-07 11:30N 40°38' W 074°12'1 1.5
2017-Dec-07 11:00N 40°38' W 074°12'0 0.0
2017-Dec-07 10:30N 40°38' W 074°12'1 1.2
2017-Dec-07 09:59N 40°39' W 074°11'3 6.1
2017-Dec-07 09:30N 40°41' W 074°08'0 0.1
2017-Dec-07 09:00N 40°41' W 074°08'3 5.3
2017-Dec-07 08:30N 40°39' W 074°11'4 7.9
2017-Dec-07 07:58N 40°35' W 074°13'1 1.2
2017-Dec-07 07:30N 40°34' W 074°12'3 5.1
2017-Dec-07 07:00N 40°37' W 074°12'3 5.9
2017-Dec-07 06:30N 40°39' W 074°09'3 5.6
2017-Dec-07 06:00N 40°39' W 074°05'3 5.7
2017-Dec-07 05:30N 40°41' W 074°03'3 6.6
2017-Dec-07 05:00N 40°44' W 074°01'3 5.6
2017-Dec-07 04:30N 40°46' W 074°00'0 0.6
2017-Dec-07 03:59N 40°46' W 073°60'0 0.1
2017-Dec-07 03:30N 40°46' W 073°60'4 8.6
2017-Dec-07 03:00N 40°42' W 074°02'4 8.4
2017-Dec-07 02:30N 40°39' W 074°05'3 6.9
2017-Dec-07 02:00N 40°39' W 074°10'3 6.8
2017-Dec-07 01:30N 40°36' W 074°12'1 2.3
2017-Dec-07 00:51N 40°34' W 074°12'0 0.0
2017-Dec-07 00:24N 40°34' W 074°12'0 0.0
2017-Dec-06 23:56N 40°34' W 074°12'4 8.7
2017-Dec-06 23:30N 40°38' W 074°12'4 7.7
2017-Dec-06 23:00N 40°41' W 074°08'0 0.2
2017-Dec-06 22:30N 40°41' W 074°08'1 1.4
2017-Dec-06 22:00N 40°42' W 074°09'0 0.8
2017-Dec-06 21:30N 40°41' W 074°08'3 5.5
2017-Dec-06 21:00N 40°39' W 074°09'  
Track history (hours):
 
Tides and Currents Weather Stations Pressure Air Temp Water Temp Dewpoint Dewpoint Depression Visibility Wind Speed Wind Dir Waves Ship Positions

Caitlin Ann

Owner: Donjon Marine Co., Inc., Hillside, NJ. More information available from US FCC via Universal Licensing System and Coast Guard Vessel Documentation Center.

Last reported at 2017-Dec-16 01:00 UTC. Time now 2017-Dec-16 01:30 UTC.
Position N 40°42' W 074°09'.

Length 30 m; draft 3.2 m.

Type: Towing. MMSI: 367500750.

Date/timePositionNaut miles runAvg speedWind from/ knotsBaromVisibWave heightAir tempDewpointWater temp
2017-Dec-16 01:00N 40°42' W 074°09'0 0.0
2017-Dec-16 00:28N 40°42' W 074°09'0 0.0
2017-Dec-15 23:58N 40°42' W 074°09'0 0.0
2017-Dec-15 23:30N 40°42' W 074°09'0 0.0
2017-Dec-15 22:59N 40°42' W 074°09'0 0.0
2017-Dec-15 22:30N 40°42' W 074°09'0 0.0
2017-Dec-15 22:00N 40°42' W 074°09'0 0.0
2017-Dec-15 21:29N 40°42' W 074°09'0 0.3
2017-Dec-15 21:00N 40°42' W 074°09'0 0.1
2017-Dec-15 20:29N 40°42' W 074°09'1 1.3
2017-Dec-15 19:59N 40°41' W 074°08'1 0.4
2017-Dec-15 17:59N 40°42' W 074°09'0 0.0
2017-Dec-15 17:30N 40°42' W 074°09'0 0.0
2017-Dec-15 16:57N 40°42' W 074°09'0 0.0
2017-Dec-15 16:30N 40°42' W 074°09'2 3.7
2017-Dec-15 16:00N 40°40' W 074°08'2 3.7
2017-Dec-15 15:30N 40°42' W 074°09'0 0.0
2017-Dec-15 15:00N 40°42' W 074°09'0 0.0
2017-Dec-15 14:30N 40°42' W 074°09'0 0.0
2017-Dec-15 14:00N 40°42' W 074°09'0 0.0
2017-Dec-15 12:06N 40°42' W 074°09'0 0.0
2017-Dec-15 12:00N 40°42' W 074°09'0 0.0
2017-Dec-15 11:30N 40°42' W 074°09'0 0.0
2017-Dec-15 10:59N 40°42' W 074°09'0 0.0
2017-Dec-15 10:30N 40°42' W 074°09'0 0.0
2017-Dec-15 10:00N 40°42' W 074°09'0 0.0
2017-Dec-15 09:30N 40°42' W 074°09'0 0.0
2017-Dec-15 09:00N 40°42' W 074°09'0 0.0
2017-Dec-15 08:30N 40°42' W 074°09'0 0.0
2017-Dec-15 08:00N 40°42' W 074°09'2 3.4
2017-Dec-15 07:31N 40°41' W 074°08'2 3.8
2017-Dec-15 06:59N 40°39' W 074°06'3 5.5
2017-Dec-15 06:31N 40°41' W 074°04'0 0.6
2017-Dec-15 06:01N 40°41' W 074°04'2 4.0
2017-Dec-15 05:31N 40°41' W 074°02'3 6.2
2017-Dec-15 05:01N 40°43' W 073°59'4 7.2
2017-Dec-15 04:30N 40°46' W 073°57'3 6.7
2017-Dec-15 04:00N 40°48' W 073°53'4 2.0
2017-Dec-15 02:09N 40°48' W 073°48'1 0.6
2017-Dec-15 00:59N 40°48' W 073°47'17 2.6
2017-Dec-14 18:30N 40°41' W 074°08'1 1.8
2017-Dec-14 18:00N 40°42' W 074°09'0 0.0
2017-Dec-14 17:30N 40°42' W 074°09'3 6.4
2017-Dec-14 17:00N 40°39' W 074°10'4 7.8
2017-Dec-14 16:25N 40°35' W 074°13'0 0.0
2017-Dec-14 15:59N 40°35' W 074°13'1 1.4
2017-Dec-14 14:59N 40°36' W 074°12'3 6.2
2017-Dec-14 14:30N 40°39' W 074°10'3 6.2
2017-Dec-14 13:59N 40°39' W 074°06'3 6.1
2017-Dec-14 13:30N 40°41' W 074°03'4 7.2
2017-Dec-14 13:00N 40°44' W 074°01'3 5.1
2017-Dec-14 12:30N 40°46' W 073°60'0 0.2
2017-Dec-14 12:00N 40°46' W 073°60'3 6.7
2017-Dec-14 11:30N 40°43' W 074°02'4 8.6
2017-Dec-14 11:01N 40°40' W 074°04'4 7.4
2017-Dec-14 10:30N 40°38' W 074°09'2 4.1
2017-Dec-14 09:59N 40°38' W 074°12'3 6.3
2017-Dec-14 09:30N 40°35' W 074°12'1 2.7
2017-Dec-14 09:00N 40°37' W 074°12'3 5.3
2017-Dec-14 08:29N 40°39' W 074°10'3 5.7
2017-Dec-14 08:00N 40°41' W 074°08'1 2.6
2017-Dec-14 07:31N 40°42' W 074°09'0 0.0
2017-Dec-14 07:00N 40°42' W 074°09'0 0.0
2017-Dec-14 06:30N 40°42' W 074°09'0 0.0
2017-Dec-14 05:59N 40°42' W 074°09'0 0.0
2017-Dec-14 05:29N 40°42' W 074°09'0 0.0
2017-Dec-14 05:00N 40°42' W 074°09'0 0.0
2017-Dec-14 04:30N 40°42' W 074°09'0 0.0
2017-Dec-14 04:00N 40°42' W 074°09'0 0.0
2017-Dec-14 03:30N 40°42' W 074°09'0 0.0
2017-Dec-14 03:00N 40°42' W 074°09'0 0.0
2017-Dec-14 02:31N 40°42' W 074°09'0 0.0
2017-Dec-14 02:00N 40°42' W 074°09'0 0.0
2017-Dec-14 01:30N 40°42' W 074°09'0 0.0
2017-Dec-14 01:01N 40°42' W 074°09'0 0.0
2017-Dec-14 00:30N 40°42' W 074°09'0 0.0
2017-Dec-14 00:01N 40°42' W 074°09'0 0.0
2017-Dec-13 23:31N 40°42' W 074°09'0 0.0
2017-Dec-13 23:00N 40°42' W 074°09'0 0.0
2017-Dec-13 22:30N 40°42' W 074°09'0 0.0
2017-Dec-13 22:00N 40°42' W 074°09'0 0.0
2017-Dec-13 21:29N 40°42' W 074°09'0 0.0
2017-Dec-13 21:00N 40°42' W 074°09'0 0.0
2017-Dec-13 20:31N 40°42' W 074°09'0 0.0
2017-Dec-13 20:01N 40°42' W 074°09'0 0.1
2017-Dec-13 19:30N 40°42' W 074°09'1 2.7
2017-Dec-13 19:00N 40°41' W 074°08'1 2.9
2017-Dec-13 18:30N 40°42' W 074°09'0 0.0
2017-Dec-13 18:00N 40°42' W 074°09'0 0.0
2017-Dec-13 17:30N 40°42' W 074°09'0 0.0
2017-Dec-13 17:00N 40°42' W 074°09'0 0.0
2017-Dec-13 16:30N 40°42' W 074°09'0 0.0
2017-Dec-13 16:00N 40°42' W 074°09'0 0.0
2017-Dec-13 15:29N 40°42' W 074°09'0 0.0
2017-Dec-13 15:00N 40°42' W 074°09'0 0.0
2017-Dec-13 14:30N 40°42' W 074°09'0 0.0
2017-Dec-13 14:00N 40°42' W 074°09'0 0.0
2017-Dec-13 13:30N 40°42' W 074°09'0 0.0
2017-Dec-13 12:54N 40°42' W 074°09'0 0.1
2017-Dec-13 12:30N 40°42' W 074°09'2 4.6
2017-Dec-13 12:00N 40°40' W 074°08'2 3.9
2017-Dec-13 11:30N 40°39' W 074°06'2 5.0
2017-Dec-13 11:00N 40°41' W 074°04'1 1.8
2017-Dec-13 10:30N 40°41' W 074°05'0 0.0
2017-Dec-13 10:00N 40°41' W 074°05'0 0.1
2017-Dec-13 09:30N 40°41' W 074°05'0 0.4
2017-Dec-13 09:00N 40°41' W 074°04'0 0.4
2017-Dec-13 08:30N 40°41' W 074°05'0 0.1
2017-Dec-13 08:00N 40°41' W 074°05'0 0.0
2017-Dec-13 07:30N 40°41' W 074°05'0 0.0
2017-Dec-13 07:00N 40°41' W 074°05'0 0.0
2017-Dec-13 06:30N 40°41' W 074°05'0 0.0
2017-Dec-13 06:00N 40°41' W 074°05'0 0.0
2017-Dec-13 05:30N 40°41' W 074°05'0 0.0
2017-Dec-13 05:00N 40°41' W 074°05'0 0.2
2017-Dec-13 04:30N 40°41' W 074°05'0 0.0
2017-Dec-13 04:00N 40°41' W 074°05'0 0.7
2017-Dec-13 03:30N 40°41' W 074°04'2 4.5
2017-Dec-13 03:00N 40°42' W 074°01'3 6.5
2017-Dec-13 02:30N 40°44' W 073°58'4 8.6
2017-Dec-13 02:00N 40°47' W 073°55'2 1.5
2017-Dec-13 00:24N 40°49' W 073°52'2 4.6
2017-Dec-12 23:55N 40°48' W 073°55'2 4.4
2017-Dec-12 23:30N 40°46' W 073°57'2 4.7
2017-Dec-12 23:00N 40°44' W 073°58'3 6.4
2017-Dec-12 22:30N 40°42' W 074°00'2 4.7
2017-Dec-12 22:00N 40°41' W 074°03'1 2.4
2017-Dec-12 21:30N 40°41' W 074°05'0 0.0
2017-Dec-12 21:00N 40°41' W 074°05'0 0.0
2017-Dec-12 20:30N 40°41' W 074°05'0 0.1
2017-Dec-12 20:00N 40°41' W 074°04'0 0.3
2017-Dec-12 19:30N 40°41' W 074°05'0 0.0
2017-Dec-12 19:00N 40°41' W 074°05'0 0.0
2017-Dec-12 18:30N 40°41' W 074°05'0 0.3
2017-Dec-12 18:00N 40°41' W 074°04'0 0.2
2017-Dec-12 17:30N 40°41' W 074°05'0 0.9
2017-Dec-12 17:00N 40°41' W 074°04'3 5.7
2017-Dec-12 16:30N 40°42' W 074°01'3 6.2
2017-Dec-12 16:00N 40°44' W 073°58'4 7.6
2017-Dec-12 15:29N 40°47' W 073°55'3 6.9
2017-Dec-12 15:00N 40°48' W 073°50'3 0.9
2017-Dec-12 11:28N 40°51' W 073°49'3 6.1
2017-Dec-12 10:57N 40°48' W 073°47'1 1.8
2017-Dec-12 10:29N 40°48' W 073°48'0 0.0
2017-Dec-12 10:00N 40°48' W 073°48'0 0.1
2017-Dec-12 09:29N 40°48' W 073°48'0 0.0
2017-Dec-12 08:59N 40°48' W 073°48'0 0.1
2017-Dec-12 08:29N 40°48' W 073°48'0 0.0
2017-Dec-12 07:56N 40°48' W 073°48'0 0.0
2017-Dec-12 06:38N 40°48' W 073°48'0 0.0
2017-Dec-12 06:28N 40°48' W 073°48'0 0.0
2017-Dec-12 05:51N 40°48' W 073°48'0 0.0
2017-Dec-12 05:30N 40°48' W 073°48'2 2.8
2017-Dec-12 04:57N 40°48' W 073°50'4 9.7
2017-Dec-12 04:31N 40°47' W 073°56'3 5.3
2017-Dec-12 04:00N 40°44' W 073°57'1 2.7
2017-Dec-12 03:30N 40°43' W 073°58'0 0.8
2017-Dec-12 03:00N 40°43' W 073°58'1 1.1
2017-Dec-12 02:30N 40°43' W 073°59'2 4.2
2017-Dec-12 02:00N 40°41' W 074°01'2 4.6
2017-Dec-12 01:30N 40°40' W 074°04'1 1.9
2017-Dec-12 01:00N 40°41' W 074°05'0 0.2
2017-Dec-12 00:30N 40°41' W 074°04'0 0.0
2017-Dec-12 00:00N 40°41' W 074°04'0 0.0
2017-Dec-11 23:30N 40°41' W 074°04'0 0.0
2017-Dec-11 23:00N 40°41' W 074°04'0 0.0
2017-Dec-11 22:30N 40°41' W 074°04'0 0.0
2017-Dec-11 22:00N 40°41' W 074°04'1 1.9
2017-Dec-11 21:30N 40°40' W 074°04'4 8.4
2017-Dec-11 20:59N 40°39' W 074°09'3 6.1
2017-Dec-11 20:29N 40°42' W 074°09'0 0.0
2017-Dec-11 20:00N 40°42' W 074°09'0 0.4
2017-Dec-11 19:30N 40°42' W 074°09'2 3.9
2017-Dec-11 19:00N 40°40' W 074°08'3 5.6
2017-Dec-11 18:30N 40°38' W 074°11'1 1.9
2017-Dec-11 18:00N 40°38' W 074°12'3 5.2
2017-Dec-11 17:21N 40°34' W 074°12'1 2.7
2017-Dec-11 16:58N 40°35' W 074°12'1 0.3
2017-Dec-11 13:41N 40°34' W 074°12'0 0.0
2017-Dec-11 13:29N 40°34' W 074°12'1 1.2
2017-Dec-11 13:00N 40°35' W 074°13'4 7.1
2017-Dec-11 12:30N 40°38' W 074°12'3 6.4
2017-Dec-11 11:59N 40°39' W 074°07'3 6.1
2017-Dec-11 11:30N 40°40' W 074°04'4 7.5
2017-Dec-11 11:00N 40°43' W 074°02'4 7.0
2017-Dec-11 10:30N 40°46' W 074°00'0 0.6
2017-Dec-11 10:00N 40°46' W 073°60'0 0.1
2017-Dec-11 09:29N 40°46' W 073°60'3 6.5
2017-Dec-11 09:00N 40°44' W 074°02'4 7.6
2017-Dec-11 08:30N 40°40' W 074°04'4 7.4
2017-Dec-11 08:00N 40°39' W 074°08'3 6.5
2017-Dec-11 07:30N 40°37' W 074°12'3 5.6
2017-Dec-11 07:00N 40°34' W 074°12'0 0.0
2017-Dec-11 06:30N 40°34' W 074°12'0 0.0
2017-Dec-11 05:59N 40°34' W 074°12'0 0.0
2017-Dec-11 05:30N 40°34' W 074°12'0 0.0
2017-Dec-11 04:59N 40°34' W 074°12'0 0.1
2017-Dec-11 03:24N 40°34' W 074°12'0 0.0
2017-Dec-11 00:54N 40°34' W 074°12'0 0.0
2017-Dec-11 00:25N 40°34' W 074°12'0 0.0
2017-Dec-10 23:54N 40°34' W 074°12'0 0.0
2017-Dec-10 23:25N 40°34' W 074°12'0 0.0
2017-Dec-10 22:59N 40°34' W 074°12'0 0.0
2017-Dec-10 22:21N 40°34' W 074°12'0 0.0
2017-Dec-10 21:59N 40°34' W 074°12'0 0.0
2017-Dec-10 21:28N 40°34' W 074°12'0 0.0
2017-Dec-10 20:59N 40°34' W 074°12'0 0.0
2017-Dec-10 20:30N 40°34' W 074°12'1 1.2
2017-Dec-10 20:00N 40°35' W 074°12'1 1.0
2017-Dec-10 19:23N 40°34' W 074°12'1 2.1
2017-Dec-10 18:56N 40°35' W 074°12'1 1.2
2017-Dec-10 18:16N 40°35' W 074°13'2 4.4
2017-Dec-10 17:55N 40°36' W 074°12'0 0.1
2017-Dec-10 17:29N 40°36' W 074°12'3 6.4
2017-Dec-10 17:00N 40°39' W 074°10'3 5.1
2017-Dec-10 16:30N 40°41' W 074°08'2 3.2
2017-Dec-10 16:00N 40°42' W 074°09'0 0.0
2017-Dec-10 15:30N 40°42' W 074°09'0 0.0
2017-Dec-10 15:00N 40°42' W 074°09'0 0.0
2017-Dec-10 14:30N 40°42' W 074°09'0 0.0
2017-Dec-10 14:00N 40°42' W 074°09'0 0.0
2017-Dec-10 13:30N 40°42' W 074°09'0 0.1
2017-Dec-10 13:00N 40°42' W 074°09'0 0.0
2017-Dec-10 12:30N 40°42' W 074°09'0 0.0
2017-Dec-10 12:00N 40°42' W 074°09'0 0.0
2017-Dec-10 11:30N 40°42' W 074°09'0 0.0
2017-Dec-10 11:00N 40°42' W 074°09'0 0.0
2017-Dec-10 10:30N 40°42' W 074°09'0 0.0
2017-Dec-10 10:00N 40°42' W 074°09'0 0.0
2017-Dec-10 09:30N 40°42' W 074°09'0 0.0
2017-Dec-10 09:00N 40°42' W 074°09'0 0.0
2017-Dec-10 08:30N 40°42' W 074°09'0 0.0
2017-Dec-10 08:00N 40°42' W 074°09'0 0.0
2017-Dec-10 07:30N 40°42' W 074°09'0 0.0
2017-Dec-10 07:00N 40°42' W 074°09'0 0.0
2017-Dec-10 06:30N 40°42' W 074°09'0 0.0
2017-Dec-10 06:00N 40°42' W 074°09'0 0.0
2017-Dec-10 05:30N 40°42' W 074°09'0 0.0
2017-Dec-10 05:00N 40°42' W 074°09'0 0.0
2017-Dec-10 04:30N 40°42' W 074°09'0 0.0
2017-Dec-10 04:00N 40°42' W 074°09'0 0.0
2017-Dec-10 03:30N 40°42' W 074°09'0 0.0
2017-Dec-10 03:00N 40°42' W 074°09'0 0.0
2017-Dec-10 02:30N 40°42' W 074°09'0 0.0
2017-Dec-10 02:00N 40°42' W 074°09'0 0.0
2017-Dec-10 01:30N 40°42' W 074°09'0 0.0
2017-Dec-10 01:00N 40°42' W 074°09'0 0.0
2017-Dec-10 00:30N 40°42' W 074°09'0 0.0
2017-Dec-10 00:00N 40°42' W 074°09'0 0.0
2017-Dec-09 23:30N 40°42' W 074°09'0 0.0
2017-Dec-09 23:00N 40°42' W 074°09'0 0.0
2017-Dec-09 22:30N 40°42' W 074°09'0 0.0
2017-Dec-09 22:00N 40°42' W 074°09'0 0.0
2017-Dec-09 21:30N 40°42' W 074°09'0 0.0
2017-Dec-09 21:00N 40°42' W 074°09'0 0.0
2017-Dec-09 20:30N 40°42' W 074°09'0 0.0
2017-Dec-09 20:00N 40°42' W 074°09'0 0.0
2017-Dec-09 19:30N 40°42' W 074°09'0 0.0
2017-Dec-09 19:00N 40°42' W 074°09'1 1.8
2017-Dec-09 18:30N 40°41' W 074°08'3 5.4
2017-Dec-09 17:59N 40°39' W 074°07'1 1.8
2017-Dec-09 17:30N 40°39' W 074°05'0 0.0
2017-Dec-09 17:00N 40°39' W 074°05'3 5.4
2017-Dec-09 16:30N 40°39' W 074°09'3 6.4
2017-Dec-09 16:00N 40°42' W 074°09'0 0.1
2017-Dec-09 15:30N 40°42' W 074°09'0 0.0
2017-Dec-09 15:00N 40°42' W 074°09'0 0.0
2017-Dec-09 14:30N 40°42' W 074°09'0 0.0
2017-Dec-09 14:00N 40°42' W 074°09'0 0.0
2017-Dec-09 13:30N 40°42' W 074°09'0 0.1
2017-Dec-09 12:59N 40°42' W 074°09'0 0.0
2017-Dec-09 12:30N 40°42' W 074°09'0 0.0
2017-Dec-09 12:00N 40°42' W 074°09'0 0.0
2017-Dec-09 11:30N 40°42' W 074°09'0 0.0
2017-Dec-09 11:00N 40°42' W 074°09'0 0.0
2017-Dec-09 10:30N 40°42' W 074°09'0 0.0
2017-Dec-09 10:00N 40°42' W 074°09'0 0.0
2017-Dec-09 09:30N 40°42' W 074°09'0 0.0
2017-Dec-09 08:58N 40°42' W 074°09'0 0.0
2017-Dec-09 08:29N 40°42' W 074°09'0 0.0
2017-Dec-09 08:00N 40°42' W 074°09'0 0.0
2017-Dec-09 07:30N 40°42' W 074°09'0 0.0
2017-Dec-09 07:00N 40°42' W 074°09'0 0.0
2017-Dec-09 06:30N 40°42' W 074°09'0 0.0
2017-Dec-09 06:00N 40°42' W 074°09'0 0.0
2017-Dec-09 05:30N 40°42' W 074°09'0 0.0
2017-Dec-09 05:00N 40°42' W 074°09'0 0.0
2017-Dec-09 04:30N 40°42' W 074°09'0 0.0
2017-Dec-09 04:00N 40°42' W 074°09'0 0.0
2017-Dec-09 03:30N 40°42' W 074°09'1 2.2
2017-Dec-09 02:58N 40°41' W 074°09'2 5.0
2017-Dec-09 02:29N 40°39' W 074°07'3 6.4
2017-Dec-09 02:00N 40°41' W 074°05'2 3.0
2017-Dec-09 01:30N 40°41' W 074°03'3 6.7
2017-Dec-09 01:00N 40°43' W 073°59'2 4.4
2017-Dec-09 00:28N 40°44' W 073°57'0 0.1
2017-Dec-09 00:00N 40°44' W 073°57'1 2.4
2017-Dec-08 23:30N 40°44' W 073°58'2 4.4
2017-Dec-08 23:00N 40°42' W 074°00'3 5.5
2017-Dec-08 22:30N 40°40' W 074°03'2 3.4
2017-Dec-08 22:00N 40°41' W 074°05'0 0.1
2017-Dec-08 21:30N 40°41' W 074°05'0 0.0
2017-Dec-08 21:00N 40°41' W 074°05'0 0.0
2017-Dec-08 20:30N 40°41' W 074°05'0 0.7
2017-Dec-08 20:00N 40°41' W 074°04'3 6.8
2017-Dec-08 19:30N 40°42' W 074°00'3 6.7
2017-Dec-08 19:00N 40°44' W 073°56'1 2.2
2017-Dec-08 18:30N 40°43' W 073°56'1 2.2
2017-Dec-08 18:00N 40°44' W 073°56'3 5.5
2017-Dec-08 17:30N 40°42' W 073°59'4 7.7
2017-Dec-08 17:00N 40°41' W 074°04'2 3.5
2017-Dec-08 16:30N 40°39' W 074°05'5 9.3
2017-Dec-08 16:00N 40°39' W 074°11'4 8.2
2017-Dec-08 15:28N 40°34' W 074°12'1 1.6
2017-Dec-08 15:00N 40°35' W 074°13'3 6.2
2017-Dec-08 14:30N 40°38' W 074°12'3 6.3
2017-Dec-08 14:00N 40°39' W 074°08'4 7.3
2017-Dec-08 13:30N 40°40' W 074°03'4 7.6
2017-Dec-08 13:00N 40°43' W 074°02'3 6.6
2017-Dec-08 12:30N 40°46' W 073°60'0 0.1
2017-Dec-08 12:00N 40°47' W 073°60'0 0.1
2017-Dec-08 11:30N 40°46' W 073°60'1 2.6
2017-Dec-08 11:00N 40°45' W 074°01'2 3.5
2017-Dec-08 10:30N 40°44' W 074°01'2 4.9
2017-Dec-08 10:00N 40°41' W 074°02'3 5.8
2017-Dec-08 09:31N 40°39' W 074°05'4 7.6
2017-Dec-08 09:00N 40°39' W 074°10'3 5.8
2017-Dec-08 08:30N 40°37' W 074°12'2 4.4
2017-Dec-08 07:59N 40°34' W 074°12'0 0.3
2017-Dec-08 07:30N 40°34' W 074°12'3 5.9
2017-Dec-08 07:00N 40°37' W 074°12'3 5.6
2017-Dec-08 06:30N 40°39' W 074°09'3 5.4
2017-Dec-08 06:00N 40°39' W 074°05'3 5.9
2017-Dec-08 05:30N 40°41' W 074°02'3 6.2
2017-Dec-08 05:00N 40°44' W 074°01'3 5.5
2017-Dec-08 04:29N 40°47' W 073°60'0 0.3
2017-Dec-08 04:00N 40°46' W 073°60'2 4.5
2017-Dec-08 03:30N 40°45' W 074°01'4 8.1
2017-Dec-08 03:00N 40°41' W 074°03'3 6.9
2017-Dec-08 02:30N 40°39' W 074°07'3 6.7
2017-Dec-08 02:00N 40°39' W 074°11'3 4.8
2017-Dec-08 01:17N 40°35' W 074°12'1 1.0
2017-Dec-08 00:13N 40°34' W 074°12'2 5.9
2017-Dec-07 23:57N 40°36' W 074°12'4 6.9
2017-Dec-07 23:26N 40°39' W 074°09'3 6.5
2017-Dec-07 23:00N 40°41' W 074°08'0 0.0
2017-Dec-07 22:29N 40°41' W 074°08'0 0.0
2017-Dec-07 22:00N 40°41' W 074°08'0 0.0
2017-Dec-07 21:30N 40°41' W 074°08'0 0.0
2017-Dec-07 20:59N 40°41' W 074°08'0 0.0
2017-Dec-07 20:29N 40°41' W 074°08'0 0.0
2017-Dec-07 20:00N 40°41' W 074°08'0 0.2
2017-Dec-07 19:31N 40°42' W 074°08'1 1.2
2017-Dec-07 19:00N 40°41' W 074°09'0 0.3
2017-Dec-07 18:30N 40°41' W 074°09'0 0.0
2017-Dec-07 17:59N 40°41' W 074°09'0 0.1
2017-Dec-07 17:30N 40°41' W 074°09'0 0.0
2017-Dec-07 17:00N 40°41' W 074°09'0 0.2
2017-Dec-07 16:30N 40°41' W 074°09'1 1.4
2017-Dec-07 16:00N 40°41' W 074°08'1 1.9
2017-Dec-07 15:30N 40°42' W 074°09'1 2.1
2017-Dec-07 15:00N 40°41' W 074°08'3 5.7
2017-Dec-07 14:30N 40°39' W 074°10'2 4.3
2017-Dec-07 14:00N 40°38' W 074°12'0 0.1
2017-Dec-07 13:30N 40°38' W 074°12'0 0.1
2017-Dec-07 13:00N 40°38' W 074°12'0 0.0
2017-Dec-07 12:30N 40°38' W 074°12'0 0.1
2017-Dec-07 12:00N 40°38' W 074°12'0 0.0
2017-Dec-07 11:30N 40°38' W 074°12'1 1.5
2017-Dec-07 11:00N 40°38' W 074°12'0 0.0
2017-Dec-07 10:30N 40°38' W 074°12'1 1.2
2017-Dec-07 09:59N 40°39' W 074°11'3 6.1
2017-Dec-07 09:30N 40°41' W 074°08'0 0.1
2017-Dec-07 09:00N 40°41' W 074°08'3 5.3
2017-Dec-07 08:30N 40°39' W 074°11'4 7.9
2017-Dec-07 07:58N 40°35' W 074°13'1 1.2
2017-Dec-07 07:30N 40°34' W 074°12'3 5.1
2017-Dec-07 07:00N 40°37' W 074°12'3 5.9
2017-Dec-07 06:30N 40°39' W 074°09'3 5.6
2017-Dec-07 06:00N 40°39' W 074°05'3 5.7
2017-Dec-07 05:30N 40°41' W 074°03'3 6.6
2017-Dec-07 05:00N 40°44' W 074°01'3 5.6
2017-Dec-07 04:30N 40°46' W 074°00'0 0.6
2017-Dec-07 03:59N 40°46' W 073°60'0 0.1
2017-Dec-07 03:30N 40°46' W 073°60'4 8.6
2017-Dec-07 03:00N 40°42' W 074°02'4 8.4
2017-Dec-07 02:30N 40°39' W 074°05'3 6.9
2017-Dec-07 02:00N 40°39' W 074°10'3 6.8
2017-Dec-07 01:30N 40°36' W 074°12'1 2.3
2017-Dec-07 00:51N 40°34' W 074°12'0 0.0
2017-Dec-07 00:24N 40°34' W 074°12'0 0.0
2017-Dec-06 23:56N 40°34' W 074°12'4 8.7
2017-Dec-06 23:30N 40°38' W 074°12'4 7.7
2017-Dec-06 23:00N 40°41' W 074°08'0 0.2
2017-Dec-06 22:30N 40°41' W 074°08'1 1.4
2017-Dec-06 22:00N 40°42' W 074°09'0 0.8
2017-Dec-06 21:30N 40°41' W 074°08'3 5.5
2017-Dec-06 21:00N 40°39' W 074°09'  

Dump ship's entire track history